Terminal Aerodrome Forecast
Issued by NWS

Home | Current Version | Previous Version | Graphics & Text | Print | Product List | Glossary On
Versions: 1 2 3 4 5 6 7 8 9 10 11 12 13 14
000
FTUS43 KICT 250527
TAFHUT
TAF
KHUT 250527Z 2506/2606 31017G23KT P6SM BKN090
     FM251500 33026G37KT P6SM SCT035 SCT250
     FM252300 32014KT P6SM SCT100 SCT200
     FM260300 34006KT P6SM SCT250=

USA.gov is the U.S. government's official web portal to all federal, state and local government web resources and services.